Alpena, Michigan
Current Conditions -  °F | °C
As of 5:32 PM on Monday 24 Nov 2014 (Local Time) from KAPN Reporting Station
Light Rain Light Rain  
Wind Chill: 41°   Ceiling: 3800
Heat Index: 45°   Visibility: 8mi
Dew Point: 42°   Wind: 7mph
Humidity: 90%   Direction: 290°WNW
Pressure: 29.12"   Gusts: NA
Location:  45.06°N, 83.44°W
Report Text: KAPN 242232Z AUTO 29006KT 8SM -RA FEW009 BKN038 OVC045 07/06 A2912 RMK AO2 P0004 T00720056
Loading
Personal Weather Stations






























Interactive Weather Map New forecast layout! Learn more

10-Day Weather Forecast

Advertisements
Track Severe Weather on mobile